sensor_id;sensor_type;location;lat;lon;timestamp;P1;durP1;ratioP1;P2;durP2;ratioP2
22650;SDS011;11492;42.646;23.400;2023-09-19T00:01:20;12.35;;;4.53;;
22650;SDS011;11492;42.646;23.400;2023-09-19T00:03:49;8.93;;;4.13;;
22650;SDS011;11492;42.646;23.400;2023-09-19T00:06:17;6.55;;;4.53;;
22650;SDS011;11492;42.646;23.400;2023-09-19T00:08:45;7.78;;;4.65;;
22650;SDS011;11492;42.646;23.400;2023-09-19T00:11:13;8.60;;;4.10;;
22650;SDS011;11492;42.646;23.400;2023-09-19T00:13:46;9.35;;;4.07;;
22650;SDS011;11492;42.646;23.400;2023-09-19T00:16:18;9.07;;;3.92;;
22650;SDS011;11492;42.646;23.400;2023-09-19T00:18:48;6.60;;;4.07;;
22650;SDS011;11492;42.646;23.400;2023-09-19T00:21:22;7.82;;;4.38;;
22650;SDS011;11492;42.646;23.400;2023-09-19T00:23:53;14.48;;;4.40;;
22650;SDS011;11492;42.646;23.400;2023-09-19T00:26:21;7.97;;;4.40;;
22650;SDS011;11492;42.646;23.400;2023-09-19T00:28:52;10.70;;;4.97;;
22650;SDS011;11492;42.646;23.400;2023-09-19T00:31:23;8.82;;;5.00;;
22650;SDS011;11492;42.646;23.400;2023-09-19T00:33:51;14.40;;;5.05;;
22650;SDS011;11492;42.646;23.400;2023-09-19T00:36:25;9.13;;;4.50;;
22650;SDS011;11492;42.646;23.400;2023-09-19T00:39:01;9.82;;;4.38;;
22650;SDS011;11492;42.646;23.400;2023-09-19T00:41:36;12.65;;;4.65;;
22650;SDS011;11492;42.646;23.400;2023-09-19T00:44:10;9.88;;;4.80;;
22650;SDS011;11492;42.646;23.400;2023-09-19T00:46:43;16.13;;;5.47;;
22650;SDS011;11492;42.646;23.400;2023-09-19T00:49:14;13.57;;;4.55;;
22650;SDS011;11492;42.646;23.400;2023-09-19T00:51:43;11.65;;;4.57;;
22650;SDS011;11492;42.646;23.400;2023-09-19T00:54:15;11.07;;;5.32;;
22650;SDS011;11492;42.646;23.400;2023-09-19T00:56:45;10.23;;;4.88;;
22650;SDS011;11492;42.646;23.400;2023-09-19T00:59:11;13.00;;;5.22;;
22650;SDS011;11492;42.646;23.400;2023-09-19T01:01:45;12.70;;;5.18;;
22650;SDS011;11492;42.646;23.400;2023-09-19T01:04:14;7.97;;;4.70;;
22650;SDS011;11492;42.646;23.400;2023-09-19T01:06:45;9.15;;;4.95;;
22650;SDS011;11492;42.646;23.400;2023-09-19T01:09:15;7.60;;;5.20;;
22650;SDS011;11492;42.646;23.400;2023-09-19T01:11:47;7.18;;;4.55;;
22650;SDS011;11492;42.646;23.400;2023-09-19T01:20:45;9.68;;;5.00;;
22650;SDS011;11492;42.646;23.400;2023-09-19T01:23:49;10.20;;;4.80;;
22650;SDS011;11492;42.646;23.400;2023-09-19T01:27:06;14.45;;;5.40;;
22650;SDS011;11492;42.646;23.400;2023-09-19T01:29:51;10.13;;;5.47;;
22650;SDS011;11492;42.646;23.400;2023-09-19T01:32:22;8.95;;;5.57;;
22650;SDS011;11492;42.646;23.400;2023-09-19T01:34:56;7.72;;;4.90;;
22650;SDS011;11492;42.646;23.400;2023-09-19T01:37:32;8.40;;;4.85;;
22650;SDS011;11492;42.646;23.400;2023-09-19T01:40:01;13.50;;;5.25;;
22650;SDS011;11492;42.646;23.400;2023-09-19T01:50:59;12.95;;;5.60;;
22650;SDS011;11492;42.646;23.400;2023-09-19T01:56:23;9.93;;;5.75;;
22650;SDS011;11492;42.646;23.400;2023-09-19T01:59:00;8.85;;;5.03;;
22650;SDS011;11492;42.646;23.400;2023-09-19T02:01:34;11.00;;;5.45;;
22650;SDS011;11492;42.646;23.400;2023-09-19T02:04:06;12.82;;;5.22;;
22650;SDS011;11492;42.646;23.400;2023-09-19T02:06:43;9.25;;;5.30;;
22650;SDS011;11492;42.646;23.400;2023-09-19T02:09:15;8.32;;;4.78;;
22650;SDS011;11492;42.646;23.400;2023-09-19T02:11:41;10.55;;;5.38;;
22650;SDS011;11492;42.646;23.400;2023-09-19T02:14:14;8.50;;;4.95;;
22650;SDS011;11492;42.646;23.400;2023-09-19T02:16:42;13.73;;;5.65;;
22650;SDS011;11492;42.646;23.400;2023-09-19T02:19:15;11.43;;;5.78;;
22650;SDS011;11492;42.646;23.400;2023-09-19T02:21:43;11.27;;;5.20;;
22650;SDS011;11492;42.646;23.400;2023-09-19T02:24:16;9.13;;;5.50;;
22650;SDS011;11492;42.646;23.400;2023-09-19T02:26:47;9.18;;;5.95;;
22650;SDS011;11492;42.646;23.400;2023-09-19T02:29:18;10.38;;;5.57;;
22650;SDS011;11492;42.646;23.400;2023-09-19T02:31:49;9.98;;;5.43;;
22650;SDS011;11492;42.646;23.400;2023-09-19T02:34:21;8.05;;;5.40;;
22650;SDS011;11492;42.646;23.400;2023-09-19T02:36:50;11.80;;;5.35;;
22650;SDS011;11492;42.646;23.400;2023-09-19T02:39:25;12.27;;;5.63;;
22650;SDS011;11492;42.646;23.400;2023-09-19T02:44:29;11.15;;;5.97;;
22650;SDS011;11492;42.646;23.400;2023-09-19T02:47:03;9.60;;;5.15;;
22650;SDS011;11492;42.646;23.400;2023-09-19T02:49:29;16.13;;;6.07;;
22650;SDS011;11492;42.646;23.400;2023-09-19T02:51:59;12.00;;;5.45;;
22650;SDS011;11492;42.646;23.400;2023-09-19T02:54:27;15.43;;;5.90;;
22650;SDS011;11492;42.646;23.400;2023-09-19T02:56:59;9.32;;;5.60;;
22650;SDS011;11492;42.646;23.400;2023-09-19T02:59:27;9.98;;;5.32;;
22650;SDS011;11492;42.646;23.400;2023-09-19T03:01:56;8.77;;;5.38;;
22650;SDS011;11492;42.646;23.400;2023-09-19T03:04:29;9.63;;;5.65;;
22650;SDS011;11492;42.646;23.400;2023-09-19T03:07:02;9.20;;;5.05;;
22650;SDS011;11492;42.646;23.400;2023-09-19T03:09:33;9.07;;;5.00;;
22650;SDS011;11492;42.646;23.400;2023-09-19T03:12:05;9.65;;;5.60;;
22650;SDS011;11492;42.646;23.400;2023-09-19T03:14:36;10.60;;;5.68;;
22650;SDS011;11492;42.646;23.400;2023-09-19T03:17:06;9.63;;;5.43;;
22650;SDS011;11492;42.646;23.400;2023-09-19T03:19:37;11.05;;;5.72;;
22650;SDS011;11492;42.646;23.400;2023-09-19T03:22:07;12.93;;;5.10;;
22650;SDS011;11492;42.646;23.400;2023-09-19T03:24:35;10.23;;;5.45;;
22650;SDS011;11492;42.646;23.400;2023-09-19T03:27:11;9.60;;;5.00;;
22650;SDS011;11492;42.646;23.400;2023-09-19T03:29:43;11.65;;;5.60;;
22650;SDS011;11492;42.646;23.400;2023-09-19T03:32:14;12.30;;;5.95;;
22650;SDS011;11492;42.646;23.400;2023-09-19T03:34:42;13.55;;;5.75;;
22650;SDS011;11492;42.646;23.400;2023-09-19T03:37:13;12.98;;;5.85;;
22650;SDS011;11492;42.646;23.400;2023-09-19T03:39:44;8.82;;;5.70;;
22650;SDS011;11492;42.646;23.400;2023-09-19T03:42:12;13.43;;;6.00;;
22650;SDS011;11492;42.646;23.400;2023-09-19T03:44:43;10.88;;;6.40;;
22650;SDS011;11492;42.646;23.400;2023-09-19T03:47:14;12.23;;;6.28;;
22650;SDS011;11492;42.646;23.400;2023-09-19T03:49:48;11.35;;;5.80;;
22650;SDS011;11492;42.646;23.400;2023-09-19T03:52:13;9.60;;;6.10;;
22650;SDS011;11492;42.646;23.400;2023-09-19T03:54:44;10.93;;;5.95;;
22650;SDS011;11492;42.646;23.400;2023-09-19T03:57:18;12.90;;;5.68;;
22650;SDS011;11492;42.646;23.400;2023-09-19T03:59:46;10.48;;;6.45;;
22650;SDS011;11492;42.646;23.400;2023-09-19T04:02:15;14.18;;;6.78;;
22650;SDS011;11492;42.646;23.400;2023-09-19T04:04:52;9.50;;;5.97;;
22650;SDS011;11492;42.646;23.400;2023-09-19T04:07:24;10.55;;;6.22;;
22650;SDS011;11492;42.646;23.400;2023-09-19T04:09:58;16.58;;;6.78;;
22650;SDS011;11492;42.646;23.400;2023-09-19T04:12:26;10.60;;;6.45;;
22650;SDS011;11492;42.646;23.400;2023-09-19T04:14:56;10.55;;;6.28;;
22650;SDS011;11492;42.646;23.400;2023-09-19T04:17:27;13.25;;;6.90;;
22650;SDS011;11492;42.646;23.400;2023-09-19T04:19:58;12.05;;;5.90;;
22650;SDS011;11492;42.646;23.400;2023-09-19T04:22:35;13.52;;;5.97;;
22650;SDS011;11492;42.646;23.400;2023-09-19T04:25:06;12.43;;;5.85;;
22650;SDS011;11492;42.646;23.400;2023-09-19T04:27:36;11.65;;;6.22;;
22650;SDS011;11492;42.646;23.400;2023-09-19T04:30:08;12.35;;;6.13;;
22650;SDS011;11492;42.646;23.400;2023-09-19T04:32:39;10.90;;;6.05;;
22650;SDS011;11492;42.646;23.400;2023-09-19T04:35:12;15.90;;;6.63;;
22650;SDS011;11492;42.646;23.400;2023-09-19T04:37:46;9.57;;;5.85;;
22650;SDS011;11492;42.646;23.400;2023-09-19T04:40:16;11.70;;;6.35;;
22650;SDS011;11492;42.646;23.400;2023-09-19T04:42:47;15.20;;;6.20;;
22650;SDS011;11492;42.646;23.400;2023-09-19T04:45:27;15.25;;;6.93;;
22650;SDS011;11492;42.646;23.400;2023-09-19T04:48:00;13.65;;;6.55;;
22650;SDS011;11492;42.646;23.400;2023-09-19T04:50:36;15.57;;;6.85;;
22650;SDS011;11492;42.646;23.400;2023-09-19T04:53:07;14.68;;;7.05;;
22650;SDS011;11492;42.646;23.400;2023-09-19T04:55:54;17.98;;;6.75;;
22650;SDS011;11492;42.646;23.400;2023-09-19T04:58:21;10.43;;;6.95;;
22650;SDS011;11492;42.646;23.400;2023-09-19T05:00:49;16.67;;;7.13;;
22650;SDS011;11492;42.646;23.400;2023-09-19T05:03:20;19.83;;;7.93;;
22650;SDS011;11492;42.646;23.400;2023-09-19T05:05:52;14.50;;;7.65;;
22650;SDS011;11492;42.646;23.400;2023-09-19T05:08:22;13.07;;;7.40;;
22650;SDS011;11492;42.646;23.400;2023-09-19T05:10:48;19.45;;;7.47;;
22650;SDS011;11492;42.646;23.400;2023-09-19T05:13:20;24.80;;;7.97;;
22650;SDS011;11492;42.646;23.400;2023-09-19T05:15:54;14.68;;;7.65;;
22650;SDS011;11492;42.646;23.400;2023-09-19T05:18:25;17.00;;;6.93;;
22650;SDS011;11492;42.646;23.400;2023-09-19T05:20:53;17.38;;;7.40;;
22650;SDS011;11492;42.646;23.400;2023-09-19T05:23:25;12.52;;;6.88;;
22650;SDS011;11492;42.646;23.400;2023-09-19T05:25:55;16.55;;;6.95;;
22650;SDS011;11492;42.646;23.400;2023-09-19T05:28:26;16.48;;;6.53;;
22650;SDS011;11492;42.646;23.400;2023-09-19T05:33:31;17.50;;;5.97;;
22650;SDS011;11492;42.646;23.400;2023-09-19T05:36:05;11.73;;;5.78;;
22650;SDS011;11492;42.646;23.400;2023-09-19T05:38:36;8.13;;;5.18;;
22650;SDS011;11492;42.646;23.400;2023-09-19T05:41:10;20.50;;;5.88;;
22650;SDS011;11492;42.646;23.400;2023-09-19T05:43:42;13.60;;;5.55;;
22650;SDS011;11492;42.646;23.400;2023-09-19T05:46:20;10.18;;;5.30;;
22650;SDS011;11492;42.646;23.400;2023-09-19T05:49:01;9.63;;;5.80;;
22650;SDS011;11492;42.646;23.400;2023-09-19T05:51:35;12.95;;;5.30;;
22650;SDS011;11492;42.646;23.400;2023-09-19T05:56:39;11.98;;;6.32;;
22650;SDS011;11492;42.646;23.400;2023-09-19T05:59:11;17.23;;;6.78;;
22650;SDS011;11492;42.646;23.400;2023-09-19T06:01:37;19.02;;;5.57;;
22650;SDS011;11492;42.646;23.400;2023-09-19T06:04:12;14.35;;;5.80;;
22650;SDS011;11492;42.646;23.400;2023-09-19T06:06:46;13.90;;;6.28;;
22650;SDS011;11492;42.646;23.400;2023-09-19T06:09:16;19.58;;;6.20;;
22650;SDS011;11492;42.646;23.400;2023-09-19T06:11:47;12.25;;;5.50;;
22650;SDS011;11492;42.646;23.400;2023-09-19T06:14:15;14.95;;;5.97;;
22650;SDS011;11492;42.646;23.400;2023-09-19T06:16:48;11.18;;;5.65;;
22650;SDS011;11492;42.646;23.400;2023-09-19T06:19:22;13.15;;;5.55;;
22650;SDS011;11492;42.646;23.400;2023-09-19T06:21:53;21.42;;;5.80;;
22650;SDS011;11492;42.646;23.400;2023-09-19T06:24:23;12.95;;;6.38;;
22650;SDS011;11492;42.646;23.400;2023-09-19T06:26:55;19.42;;;7.22;;
22650;SDS011;11492;42.646;23.400;2023-09-19T06:29:27;17.58;;;7.13;;
22650;SDS011;11492;42.646;23.400;2023-09-19T06:31:58;16.42;;;5.97;;
22650;SDS011;11492;42.646;23.400;2023-09-19T06:34:28;13.68;;;6.15;;
22650;SDS011;11492;42.646;23.400;2023-09-19T06:36:59;18.27;;;6.43;;
22650;SDS011;11492;42.646;23.400;2023-09-19T06:39:29;17.33;;;5.72;;
22650;SDS011;11492;42.646;23.400;2023-09-19T06:42:02;24.65;;;5.50;;
22650;SDS011;11492;42.646;23.400;2023-09-19T06:44:34;19.13;;;5.50;;
22650;SDS011;11492;42.646;23.400;2023-09-19T06:47:02;11.90;;;5.25;;
22650;SDS011;11492;42.646;23.400;2023-09-19T06:49:31;11.45;;;5.10;;
22650;SDS011;11492;42.646;23.400;2023-09-19T06:52:00;14.27;;;4.85;;
22650;SDS011;11492;42.646;23.400;2023-09-19T06:55:03;10.68;;;4.70;;
22650;SDS011;11492;42.646;23.400;2023-09-19T06:57:34;17.92;;;4.93;;
22650;SDS011;11492;42.646;23.400;2023-09-19T07:00:05;13.88;;;5.22;;
22650;SDS011;11492;42.646;23.400;2023-09-19T07:02:43;11.88;;;5.35;;
22650;SDS011;11492;42.646;23.400;2023-09-19T07:05:28;12.40;;;4.75;;
22650;SDS011;11492;42.646;23.400;2023-09-19T07:08:03;7.93;;;4.80;;
22650;SDS011;11492;42.646;23.400;2023-09-19T07:10:38;11.32;;;4.82;;
22650;SDS011;11492;42.646;23.400;2023-09-19T07:13:07;14.52;;;4.80;;
22650;SDS011;11492;42.646;23.400;2023-09-19T07:15:41;14.30;;;4.97;;
22650;SDS011;11492;42.646;23.400;2023-09-19T07:18:17;16.38;;;5.60;;
22650;SDS011;11492;42.646;23.400;2023-09-19T07:20:46;8.98;;;4.75;;
22650;SDS011;11492;42.646;23.400;2023-09-19T07:23:20;22.05;;;5.47;;
22650;SDS011;11492;42.646;23.400;2023-09-19T07:25:56;10.30;;;5.22;;
22650;SDS011;11492;42.646;23.400;2023-09-19T07:28:30;12.80;;;5.07;;
22650;SDS011;11492;42.646;23.400;2023-09-19T07:30:56;8.98;;;5.25;;
22650;SDS011;11492;42.646;23.400;2023-09-19T07:33:22;12.15;;;5.15;;
22650;SDS011;11492;42.646;23.400;2023-09-19T07:35:54;12.40;;;4.80;;
22650;SDS011;11492;42.646;23.400;2023-09-19T07:38:27;9.90;;;4.20;;
22650;SDS011;11492;42.646;23.400;2023-09-19T07:41:03;19.83;;;4.43;;
22650;SDS011;11492;42.646;23.400;2023-09-19T07:43:31;11.88;;;4.82;;
22650;SDS011;11492;42.646;23.400;2023-09-19T07:46:02;10.70;;;4.53;;
22650;SDS011;11492;42.646;23.400;2023-09-19T07:48:37;11.63;;;4.63;;
22650;SDS011;11492;42.646;23.400;2023-09-19T07:51:19;9.57;;;4.15;;
22650;SDS011;11492;42.646;23.400;2023-09-19T07:53:52;20.92;;;6.38;;
22650;SDS011;11492;42.646;23.400;2023-09-19T07:56:22;12.90;;;4.75;;
22650;SDS011;11492;42.646;23.400;2023-09-19T07:58:53;10.98;;;4.43;;
22650;SDS011;11492;42.646;23.400;2023-09-19T08:01:24;18.63;;;4.75;;
22650;SDS011;11492;42.646;23.400;2023-09-19T08:03:55;6.93;;;4.60;;
22650;SDS011;11492;42.646;23.400;2023-09-19T08:06:28;17.38;;;4.70;;
22650;SDS011;11492;42.646;23.400;2023-09-19T08:08:59;11.23;;;4.18;;
22650;SDS011;11492;42.646;23.400;2023-09-19T08:11:47;14.43;;;4.82;;
22650;SDS011;11492;42.646;23.400;2023-09-19T08:14:15;14.57;;;4.43;;
22650;SDS011;11492;42.646;23.400;2023-09-19T08:16:53;16.38;;;4.97;;
22650;SDS011;11492;42.646;23.400;2023-09-19T08:19:26;12.98;;;3.92;;
22650;SDS011;11492;42.646;23.400;2023-09-19T08:21:59;16.88;;;4.18;;
22650;SDS011;11492;42.646;23.400;2023-09-19T08:24:31;9.55;;;3.70;;
22650;SDS011;11492;42.646;23.400;2023-09-19T08:27:03;7.38;;;3.80;;
22650;SDS011;11492;42.646;23.400;2023-09-19T08:29:33;14.13;;;3.85;;
22650;SDS011;11492;42.646;23.400;2023-09-19T08:32:04;17.00;;;4.10;;
22650;SDS011;11492;42.646;23.400;2023-09-19T08:34:35;12.25;;;4.20;;
22650;SDS011;11492;42.646;23.400;2023-09-19T08:37:09;17.27;;;4.22;;
22650;SDS011;11492;42.646;23.400;2023-09-19T08:39:39;8.65;;;4.20;;
22650;SDS011;11492;42.646;23.400;2023-09-19T08:42:12;11.38;;;4.30;;
22650;SDS011;11492;42.646;23.400;2023-09-19T08:44:49;16.75;;;4.38;;
22650;SDS011;11492;42.646;23.400;2023-09-19T08:47:18;10.88;;;4.30;;
22650;SDS011;11492;42.646;23.400;2023-09-19T08:49:57;8.32;;;4.00;;
22650;SDS011;11492;42.646;23.400;2023-09-19T08:52:32;8.38;;;4.45;;
22650;SDS011;11492;42.646;23.400;2023-09-19T08:55:05;7.75;;;4.22;;
22650;SDS011;11492;42.646;23.400;2023-09-19T09:00:09;10.52;;;3.75;;
22650;SDS011;11492;42.646;23.400;2023-09-19T09:02:43;14.23;;;5.57;;
22650;SDS011;11492;42.646;23.400;2023-09-19T09:05:16;8.73;;;4.35;;
22650;SDS011;11492;42.646;23.400;2023-09-19T09:07:50;10.50;;;4.65;;
22650;SDS011;11492;42.646;23.400;2023-09-19T09:10:26;9.88;;;4.63;;
22650;SDS011;11492;42.646;23.400;2023-09-19T09:12:58;9.52;;;3.63;;
22650;SDS011;11492;42.646;23.400;2023-09-19T09:15:26;11.05;;;4.15;;
22650;SDS011;11492;42.646;23.400;2023-09-19T09:18:00;6.45;;;3.95;;
22650;SDS011;11492;42.646;23.400;2023-09-19T09:23:10;8.95;;;4.07;;
22650;SDS011;11492;42.646;23.400;2023-09-19T09:25:49;13.00;;;3.85;;
22650;SDS011;11492;42.646;23.400;2023-09-19T09:28:22;15.00;;;3.75;;
22650;SDS011;11492;42.646;23.400;2023-09-19T09:31:01;15.93;;;4.03;;
22650;SDS011;11492;42.646;23.400;2023-09-19T09:33:41;12.20;;;4.15;;
22650;SDS011;11492;42.646;23.400;2023-09-19T09:36:11;14.98;;;4.57;;
22650;SDS011;11492;42.646;23.400;2023-09-19T09:38:43;11.25;;;4.15;;
22650;SDS011;11492;42.646;23.400;2023-09-19T09:41:16;10.05;;;4.10;;
22650;SDS011;11492;42.646;23.400;2023-09-19T09:43:59;13.52;;;4.20;;
22650;SDS011;11492;42.646;23.400;2023-09-19T09:47:02;9.85;;;3.92;;
22650;SDS011;11492;42.646;23.400;2023-09-19T09:49:57;9.95;;;3.92;;
22650;SDS011;11492;42.646;23.400;2023-09-19T09:52:44;9.52;;;4.03;;
22650;SDS011;11492;42.646;23.400;2023-09-19T09:55:16;9.20;;;3.90;;
22650;SDS011;11492;42.646;23.400;2023-09-19T09:57:48;10.23;;;3.67;;
22650;SDS011;11492;42.646;23.400;2023-09-19T10:00:46;7.05;;;3.83;;
22650;SDS011;11492;42.646;23.400;2023-09-19T10:03:39;8.00;;;3.85;;
22650;SDS011;11492;42.646;23.400;2023-09-19T10:06:11;14.13;;;4.03;;
22650;SDS011;11492;42.646;23.400;2023-09-19T10:09:02;8.60;;;3.30;;
22650;SDS011;11492;42.646;23.400;2023-09-19T10:11:39;11.15;;;4.00;;
22650;SDS011;11492;42.646;23.400;2023-09-19T10:14:24;8.32;;;3.70;;
22650;SDS011;11492;42.646;23.400;2023-09-19T10:17:00;15.07;;;4.03;;
22650;SDS011;11492;42.646;23.400;2023-09-19T10:20:14;9.75;;;4.00;;
22650;SDS011;11492;42.646;23.400;2023-09-19T10:22:53;10.38;;;3.58;;
22650;SDS011;11492;42.646;23.400;2023-09-19T10:25:31;13.48;;;4.07;;
22650;SDS011;11492;42.646;23.400;2023-09-19T10:28:02;11.70;;;4.25;;
22650;SDS011;11492;42.646;23.400;2023-09-19T10:30:46;6.85;;;3.85;;
22650;SDS011;11492;42.646;23.400;2023-09-19T10:33:21;13.43;;;4.35;;
22650;SDS011;11492;42.646;23.400;2023-09-19T10:35:54;8.57;;;3.83;;
22650;SDS011;11492;42.646;23.400;2023-09-19T10:38:27;7.10;;;3.67;;
22650;SDS011;11492;42.646;23.400;2023-09-19T10:43:31;8.77;;;3.70;;
22650;SDS011;11492;42.646;23.400;2023-09-19T10:46:11;12.88;;;4.07;;
22650;SDS011;11492;42.646;23.400;2023-09-19T10:49:03;7.88;;;4.03;;
22650;SDS011;11492;42.646;23.400;2023-09-19T10:51:40;14.93;;;4.10;;
22650;SDS011;11492;42.646;23.400;2023-09-19T10:54:13;12.10;;;3.90;;
22650;SDS011;11492;42.646;23.400;2023-09-19T10:56:45;9.73;;;4.30;;
22650;SDS011;11492;42.646;23.400;2023-09-19T10:59:19;8.55;;;4.07;;
22650;SDS011;11492;42.646;23.400;2023-09-19T11:01:58;17.50;;;4.32;;
22650;SDS011;11492;42.646;23.400;2023-09-19T11:04:30;6.15;;;3.80;;
22650;SDS011;11492;42.646;23.400;2023-09-19T11:07:05;19.75;;;3.88;;
22650;SDS011;11492;42.646;23.400;2023-09-19T11:09:44;10.25;;;3.67;;
22650;SDS011;11492;42.646;23.400;2023-09-19T11:15:16;10.20;;;3.92;;
22650;SDS011;11492;42.646;23.400;2023-09-19T11:27:10;8.20;;;3.95;;
22650;SDS011;11492;42.646;23.400;2023-09-19T11:29:43;9.75;;;4.15;;
22650;SDS011;11492;42.646;23.400;2023-09-19T11:32:17;10.02;;;4.38;;
22650;SDS011;11492;42.646;23.400;2023-09-19T11:35:22;5.68;;;4.07;;
22650;SDS011;11492;42.646;23.400;2023-09-19T11:40:24;11.90;;;4.20;;
22650;SDS011;11492;42.646;23.400;2023-09-19T11:42:56;11.13;;;4.00;;
22650;SDS011;11492;42.646;23.400;2023-09-19T11:48:14;10.40;;;4.22;;
22650;SDS011;11492;42.646;23.400;2023-09-19T11:50:48;12.20;;;4.43;;
22650;SDS011;11492;42.646;23.400;2023-09-19T11:53:19;11.82;;;4.38;;
22650;SDS011;11492;42.646;23.400;2023-09-19T11:55:49;14.55;;;5.18;;
22650;SDS011;11492;42.646;23.400;2023-09-19T11:58:24;9.55;;;4.55;;
22650;SDS011;11492;42.646;23.400;2023-09-19T12:00:54;10.55;;;4.57;;
22650;SDS011;11492;42.646;23.400;2023-09-19T12:03:36;11.48;;;4.47;;
22650;SDS011;11492;42.646;23.400;2023-09-19T12:08:41;12.13;;;4.30;;
22650;SDS011;11492;42.646;23.400;2023-09-19T12:11:14;15.25;;;4.72;;
22650;SDS011;11492;42.646;23.400;2023-09-19T12:13:47;13.48;;;4.35;;
22650;SDS011;11492;42.646;23.400;2023-09-19T12:18:50;9.85;;;3.75;;
22650;SDS011;11492;42.646;23.400;2023-09-19T12:26:48;7.55;;;4.32;;
22650;SDS011;11492;42.646;23.400;2023-09-19T12:29:20;18.92;;;4.72;;
22650;SDS011;11492;42.646;23.400;2023-09-19T12:31:52;12.23;;;4.13;;
22650;SDS011;11492;42.646;23.400;2023-09-19T12:34:28;14.55;;;4.68;;
22650;SDS011;11492;42.646;23.400;2023-09-19T12:37:11;12.23;;;4.35;;
22650;SDS011;11492;42.646;23.400;2023-09-19T12:39:46;12.05;;;3.97;;
22650;SDS011;11492;42.646;23.400;2023-09-19T12:42:17;7.25;;;4.35;;
22650;SDS011;11492;42.646;23.400;2023-09-19T12:44:49;8.73;;;3.85;;
22650;SDS011;11492;42.646;23.400;2023-09-19T12:47:23;8.57;;;4.15;;
22650;SDS011;11492;42.646;23.400;2023-09-19T12:50:11;10.20;;;4.03;;
22650;SDS011;11492;42.646;23.400;2023-09-19T12:52:52;12.35;;;3.85;;
22650;SDS011;11492;42.646;23.400;2023-09-19T12:55:24;9.55;;;3.70;;
22650;SDS011;11492;42.646;23.400;2023-09-19T13:00:37;11.30;;;4.28;;
22650;SDS011;11492;42.646;23.400;2023-09-19T13:03:15;9.38;;;3.90;;
22650;SDS011;11492;42.646;23.400;2023-09-19T13:05:56;10.18;;;4.22;;
22650;SDS011;11492;42.646;23.400;2023-09-19T13:11:15;9.77;;;4.10;;
22650;SDS011;11492;42.646;23.400;2023-09-19T13:13:48;12.27;;;5.90;;
22650;SDS011;11492;42.646;23.400;2023-09-19T13:16:20;8.43;;;4.13;;
22650;SDS011;11492;42.646;23.400;2023-09-19T13:18:51;13.02;;;4.40;;
22650;SDS011;11492;42.646;23.400;2023-09-19T13:21:31;13.57;;;4.32;;
22650;SDS011;11492;42.646;23.400;2023-09-19T13:24:24;11.43;;;4.63;;
22650;SDS011;11492;42.646;23.400;2023-09-19T13:27:01;10.60;;;4.07;;
22650;SDS011;11492;42.646;23.400;2023-09-19T13:29:34;12.25;;;4.05;;
22650;SDS011;11492;42.646;23.400;2023-09-19T13:32:03;12.45;;;3.97;;
22650;SDS011;11492;42.646;23.400;2023-09-19T13:34:40;7.90;;;4.15;;
22650;SDS011;11492;42.646;23.400;2023-09-19T13:37:11;8.30;;;3.92;;
22650;SDS011;11492;42.646;23.400;2023-09-19T13:39:44;8.60;;;4.15;;
22650;SDS011;11492;42.646;23.400;2023-09-19T13:42:17;10.35;;;4.10;;
22650;SDS011;11492;42.646;23.400;2023-09-19T13:44:46;8.98;;;4.90;;
22650;SDS011;11492;42.646;23.400;2023-09-19T13:47:12;10.93;;;4.90;;
22650;SDS011;11492;42.646;23.400;2023-09-19T13:49:44;10.95;;;4.40;;
22650;SDS011;11492;42.646;23.400;2023-09-19T13:52:16;11.70;;;4.75;;
22650;SDS011;11492;42.646;23.400;2023-09-19T13:54:47;13.65;;;4.78;;
22650;SDS011;11492;42.646;23.400;2023-09-19T13:57:21;12.10;;;4.38;;
22650;SDS011;11492;42.646;23.400;2023-09-19T13:59:55;7.95;;;4.70;;
22650;SDS011;11492;42.646;23.400;2023-09-19T14:02:27;9.13;;;4.00;;
22650;SDS011;11492;42.646;23.400;2023-09-19T14:04:58;15.00;;;4.60;;
22650;SDS011;11492;42.646;23.400;2023-09-19T14:07:32;9.15;;;4.38;;
22650;SDS011;11492;42.646;23.400;2023-09-19T14:09:58;7.65;;;4.13;;
22650;SDS011;11492;42.646;23.400;2023-09-19T14:12:31;11.70;;;5.13;;
22650;SDS011;11492;42.646;23.400;2023-09-19T14:15:03;8.82;;;4.88;;
22650;SDS011;11492;42.646;23.400;2023-09-19T14:17:38;12.82;;;5.30;;
22650;SDS011;11492;42.646;23.400;2023-09-19T14:20:14;11.35;;;5.15;;
22650;SDS011;11492;42.646;23.400;2023-09-19T14:22:45;10.95;;;4.38;;
22650;SDS011;11492;42.646;23.400;2023-09-19T14:25:15;7.45;;;4.30;;
22650;SDS011;11492;42.646;23.400;2023-09-19T14:27:48;11.55;;;5.15;;
22650;SDS011;11492;42.646;23.400;2023-09-19T14:30:23;10.07;;;4.22;;
22650;SDS011;11492;42.646;23.400;2023-09-19T14:32:54;8.40;;;4.20;;
22650;SDS011;11492;42.646;23.400;2023-09-19T14:35:27;17.95;;;6.82;;
22650;SDS011;11492;42.646;23.400;2023-09-19T14:37:58;11.73;;;5.53;;
22650;SDS011;11492;42.646;23.400;2023-09-19T14:40:29;9.10;;;5.75;;
22650;SDS011;11492;42.646;23.400;2023-09-19T14:43:00;8.00;;;4.80;;
22650;SDS011;11492;42.646;23.400;2023-09-19T14:45:35;9.55;;;4.97;;
22650;SDS011;11492;42.646;23.400;2023-09-19T14:48:06;10.53;;;5.87;;
22650;SDS011;11492;42.646;23.400;2023-09-19T14:50:37;10.65;;;5.43;;
22650;SDS011;11492;42.646;23.400;2023-09-19T14:53:11;11.10;;;5.50;;
22650;SDS011;11492;42.646;23.400;2023-09-19T14:55:44;13.40;;;5.65;;
22650;SDS011;11492;42.646;23.400;2023-09-19T14:58:19;7.82;;;4.63;;
22650;SDS011;11492;42.646;23.400;2023-09-19T15:00:47;9.05;;;4.45;;
22650;SDS011;11492;42.646;23.400;2023-09-19T15:03:22;7.55;;;4.93;;
22650;SDS011;11492;42.646;23.400;2023-09-19T15:05:58;17.08;;;6.88;;
22650;SDS011;11492;42.646;23.400;2023-09-19T15:08:34;15.82;;;8.73;;
22650;SDS011;11492;42.646;23.400;2023-09-19T15:11:06;17.05;;;6.85;;
22650;SDS011;11492;42.646;23.400;2023-09-19T15:13:39;12.85;;;5.30;;
22650;SDS011;11492;42.646;23.400;2023-09-19T15:16:09;10.32;;;5.13;;
22650;SDS011;11492;42.646;23.400;2023-09-19T15:18:38;13.35;;;4.90;;
22650;SDS011;11492;42.646;23.400;2023-09-19T15:21:10;15.50;;;6.75;;
22650;SDS011;11492;42.646;23.400;2023-09-19T15:23:41;12.60;;;5.20;;
22650;SDS011;11492;42.646;23.400;2023-09-19T15:26:16;12.43;;;5.97;;
22650;SDS011;11492;42.646;23.400;2023-09-19T15:28:46;9.40;;;6.25;;
22650;SDS011;11492;42.646;23.400;2023-09-19T15:31:16;23.88;;;13.55;;
22650;SDS011;11492;42.646;23.400;2023-09-19T15:33:48;23.55;;;16.85;;
22650;SDS011;11492;42.646;23.400;2023-09-19T15:36:28;11.77;;;7.50;;
22650;SDS011;11492;42.646;23.400;2023-09-19T15:39:12;17.52;;;9.70;;
22650;SDS011;11492;42.646;23.400;2023-09-19T15:41:44;11.30;;;5.97;;
22650;SDS011;11492;42.646;23.400;2023-09-19T15:44:18;12.77;;;5.65;;
22650;SDS011;11492;42.646;23.400;2023-09-19T15:46:49;13.82;;;5.40;;
22650;SDS011;11492;42.646;23.400;2023-09-19T15:49:28;17.77;;;6.60;;
22650;SDS011;11492;42.646;23.400;2023-09-19T15:51:58;17.08;;;6.18;;
22650;SDS011;11492;42.646;23.400;2023-09-19T15:54:27;12.50;;;7.30;;
22650;SDS011;11492;42.646;23.400;2023-09-19T15:57:01;17.52;;;8.20;;
22650;SDS011;11492;42.646;23.400;2023-09-19T15:59:29;14.18;;;6.10;;
22650;SDS011;11492;42.646;23.400;2023-09-19T16:02:09;22.00;;;6.65;;
22650;SDS011;11492;42.646;23.400;2023-09-19T16:04:39;12.05;;;6.97;;
22650;SDS011;11492;42.646;23.400;2023-09-19T16:07:13;16.52;;;5.90;;
22650;SDS011;11492;42.646;23.400;2023-09-19T16:09:58;12.18;;;5.80;;